Terminal Aerodrome Forecast
Issued by NWS

Home | Current Version | Previous Version | Text Only | Print | Product List | Glossary Off
Versions: 1 2 3 4 5 6 7 8 9 10 11 12 13 14 15

682
FTUS43 KMPX 161120
TAFRNH
TAF
KRNH 161120Z 1612/1712 19006KT P6SM SCT250
     FM161800 21010KT P6SM SCT250
     FM162300 18007KT P6SM SKC=

USA.gov is the U.S. government's official web portal to all federal, state and local government web resources and services.